sensor_id;sensor_type;location;lat;lon;timestamp;P1;durP1;ratioP1;P2;durP2;ratioP2
18162;SDS011;9206;50.994;4.538;2023-02-02T00:02:13;15.83;;;3.80;;
18162;SDS011;9206;50.994;4.538;2023-02-02T00:08:05;20.83;;;4.27;;
18162;SDS011;9206;50.994;4.538;2023-02-02T00:10:54;20.80;;;3.90;;
18162;SDS011;9206;50.994;4.538;2023-02-02T00:13:47;11.97;;;3.37;;
18162;SDS011;9206;50.994;4.538;2023-02-02T00:16:40;16.43;;;3.90;;
18162;SDS011;9206;50.994;4.538;2023-02-02T00:19:33;18.20;;;3.53;;
18162;SDS011;9206;50.994;4.538;2023-02-02T00:22:26;11.67;;;3.83;;
18162;SDS011;9206;50.994;4.538;2023-02-02T00:25:17;12.90;;;3.90;;
18162;SDS011;9206;50.994;4.538;2023-02-02T00:28:05;15.27;;;4.50;;
18162;SDS011;9206;50.994;4.538;2023-02-02T00:30:55;14.63;;;4.07;;
18162;SDS011;9206;50.994;4.538;2023-02-02T00:33:45;11.77;;;3.37;;
18162;SDS011;9206;50.994;4.538;2023-02-02T00:36:34;10.33;;;3.00;;
18162;SDS011;9206;50.994;4.538;2023-02-02T00:39:27;18.03;;;4.33;;
18162;SDS011;9206;50.994;4.538;2023-02-02T00:45:06;11.70;;;4.33;;
18162;SDS011;9206;50.994;4.538;2023-02-02T00:48:07;13.90;;;3.77;;
18162;SDS011;9206;50.994;4.538;2023-02-02T00:50:55;18.07;;;4.67;;
18162;SDS011;9206;50.994;4.538;2023-02-02T00:56:34;15.00;;;4.33;;
18162;SDS011;9206;50.994;4.538;2023-02-02T00:59:21;14.37;;;4.57;;
18162;SDS011;9206;50.994;4.538;2023-02-02T01:02:09;25.90;;;4.27;;
18162;SDS011;9206;50.994;4.538;2023-02-02T01:04:56;17.57;;;4.17;;
18162;SDS011;9206;50.994;4.538;2023-02-02T01:07:45;16.33;;;4.53;;
18162;SDS011;9206;50.994;4.538;2023-02-02T01:10:34;17.53;;;4.00;;
18162;SDS011;9206;50.994;4.538;2023-02-02T01:13:27;22.43;;;4.70;;
18162;SDS011;9206;50.994;4.538;2023-02-02T01:16:20;16.70;;;3.90;;
18162;SDS011;9206;50.994;4.538;2023-02-02T01:19:13;19.37;;;4.20;;
18162;SDS011;9206;50.994;4.538;2023-02-02T01:22:03;26.53;;;4.43;;
18162;SDS011;9206;50.994;4.538;2023-02-02T01:24:51;18.87;;;4.70;;
18162;SDS011;9206;50.994;4.538;2023-02-02T01:27:45;19.27;;;4.50;;
18162;SDS011;9206;50.994;4.538;2023-02-02T01:30:38;24.27;;;4.57;;
18162;SDS011;9206;50.994;4.538;2023-02-02T01:33:34;12.87;;;3.93;;
18162;SDS011;9206;50.994;4.538;2023-02-02T01:36:22;15.47;;;3.47;;
18162;SDS011;9206;50.994;4.538;2023-02-02T01:39:10;21.67;;;4.97;;
18162;SDS011;9206;50.994;4.538;2023-02-02T01:42:04;21.50;;;4.30;;
18162;SDS011;9206;50.994;4.538;2023-02-02T01:45:05;18.23;;;4.77;;
18162;SDS011;9206;50.994;4.538;2023-02-02T01:48:10;20.23;;;4.27;;
18162;SDS011;9206;50.994;4.538;2023-02-02T01:50:59;19.73;;;4.23;;
18162;SDS011;9206;50.994;4.538;2023-02-02T01:53:53;18.50;;;4.13;;
18162;SDS011;9206;50.994;4.538;2023-02-02T01:56:57;18.77;;;4.13;;
18162;SDS011;9206;50.994;4.538;2023-02-02T01:59:48;22.10;;;4.17;;
18162;SDS011;9206;50.994;4.538;2023-02-02T02:02:40;16.83;;;4.03;;
18162;SDS011;9206;50.994;4.538;2023-02-02T02:05:32;16.87;;;3.70;;
18162;SDS011;9206;50.994;4.538;2023-02-02T02:08:26;11.77;;;4.03;;
18162;SDS011;9206;50.994;4.538;2023-02-02T02:11:18;14.90;;;4.10;;
18162;SDS011;9206;50.994;4.538;2023-02-02T02:14:07;17.53;;;3.83;;
18162;SDS011;9206;50.994;4.538;2023-02-02T02:17:23;17.50;;;4.17;;
18162;SDS011;9206;50.994;4.538;2023-02-02T02:31:47;18.13;;;3.97;;
18162;SDS011;9206;50.994;4.538;2023-02-02T02:34:59;14.40;;;4.00;;
18162;SDS011;9206;50.994;4.538;2023-02-02T02:37:53;16.33;;;3.40;;
18162;SDS011;9206;50.994;4.538;2023-02-02T02:40:48;19.07;;;3.73;;
18162;SDS011;9206;50.994;4.538;2023-02-02T02:43:40;19.27;;;3.63;;
18162;SDS011;9206;50.994;4.538;2023-02-02T02:46:36;12.87;;;4.10;;
18162;SDS011;9206;50.994;4.538;2023-02-02T02:49:26;24.00;;;4.60;;
18162;SDS011;9206;50.994;4.538;2023-02-02T02:52:19;16.63;;;4.60;;
18162;SDS011;9206;50.994;4.538;2023-02-02T02:55:07;9.20;;;3.27;;
18162;SDS011;9206;50.994;4.538;2023-02-02T02:57:57;19.03;;;3.77;;
18162;SDS011;9206;50.994;4.538;2023-02-02T03:01:00;16.90;;;3.83;;
18162;SDS011;9206;50.994;4.538;2023-02-02T03:03:57;12.67;;;3.33;;
18162;SDS011;9206;50.994;4.538;2023-02-02T03:06:56;13.13;;;4.23;;
18162;SDS011;9206;50.994;4.538;2023-02-02T03:09:51;11.07;;;3.43;;
18162;SDS011;9206;50.994;4.538;2023-02-02T03:12:43;15.00;;;4.17;;
18162;SDS011;9206;50.994;4.538;2023-02-02T03:15:32;14.00;;;3.70;;
18162;SDS011;9206;50.994;4.538;2023-02-02T03:21:11;18.93;;;3.63;;
18162;SDS011;9206;50.994;4.538;2023-02-02T03:24:02;10.33;;;3.70;;
18162;SDS011;9206;50.994;4.538;2023-02-02T03:26:52;9.97;;;3.33;;
18162;SDS011;9206;50.994;4.538;2023-02-02T03:32:30;12.03;;;3.17;;
18162;SDS011;9206;50.994;4.538;2023-02-02T03:35:24;12.67;;;3.87;;
18162;SDS011;9206;50.994;4.538;2023-02-02T03:38:13;14.83;;;3.83;;
18162;SDS011;9206;50.994;4.538;2023-02-02T03:41:03;14.33;;;3.97;;
18162;SDS011;9206;50.994;4.538;2023-02-02T03:43:50;14.20;;;3.23;;
18162;SDS011;9206;50.994;4.538;2023-02-02T03:46:38;8.87;;;2.93;;
18162;SDS011;9206;50.994;4.538;2023-02-02T03:52:17;21.17;;;4.13;;
18162;SDS011;9206;50.994;4.538;2023-02-02T03:55:06;21.33;;;3.63;;
18162;SDS011;9206;50.994;4.538;2023-02-02T03:57:58;14.73;;;3.30;;
18162;SDS011;9206;50.994;4.538;2023-02-02T04:00:47;16.60;;;3.77;;
18162;SDS011;9206;50.994;4.538;2023-02-02T04:03:36;9.47;;;3.43;;
18162;SDS011;9206;50.994;4.538;2023-02-02T04:06:29;15.53;;;3.27;;
18162;SDS011;9206;50.994;4.538;2023-02-02T04:09:22;14.40;;;4.03;;
18162;SDS011;9206;50.994;4.538;2023-02-02T04:12:13;13.60;;;3.20;;
18162;SDS011;9206;50.994;4.538;2023-02-02T04:15:05;17.57;;;3.53;;
18162;SDS011;9206;50.994;4.538;2023-02-02T04:17:53;15.03;;;4.20;;
18162;SDS011;9206;50.994;4.538;2023-02-02T04:20:41;14.23;;;3.77;;
18162;SDS011;9206;50.994;4.538;2023-02-02T04:23:30;13.97;;;3.33;;
18162;SDS011;9206;50.994;4.538;2023-02-02T04:26:21;12.43;;;2.87;;
18162;SDS011;9206;50.994;4.538;2023-02-02T04:29:11;19.80;;;4.30;;
18162;SDS011;9206;50.994;4.538;2023-02-02T04:32:00;12.43;;;3.33;;
18162;SDS011;9206;50.994;4.538;2023-02-02T04:37:38;11.73;;;3.50;;
18162;SDS011;9206;50.994;4.538;2023-02-02T04:40:25;18.87;;;3.87;;
18162;SDS011;9206;50.994;4.538;2023-02-02T04:43:18;12.87;;;2.90;;
18162;SDS011;9206;50.994;4.538;2023-02-02T04:46:12;15.73;;;3.20;;
18162;SDS011;9206;50.994;4.538;2023-02-02T04:49:04;21.30;;;3.70;;
18162;SDS011;9206;50.994;4.538;2023-02-02T04:51:57;11.57;;;3.33;;
18162;SDS011;9206;50.994;4.538;2023-02-02T04:54:48;5.80;;;2.90;;
18162;SDS011;9206;50.994;4.538;2023-02-02T04:57:41;9.30;;;3.30;;
18162;SDS011;9206;50.994;4.538;2023-02-02T05:00:30;12.27;;;3.37;;
18162;SDS011;9206;50.994;4.538;2023-02-02T05:03:19;10.13;;;3.10;;
18162;SDS011;9206;50.994;4.538;2023-02-02T05:06:11;14.37;;;3.70;;
18162;SDS011;9206;50.994;4.538;2023-02-02T05:09:04;17.10;;;4.20;;
18162;SDS011;9206;50.994;4.538;2023-02-02T05:11:52;14.90;;;3.93;;
18162;SDS011;9206;50.994;4.538;2023-02-02T05:14:41;12.67;;;3.30;;
18162;SDS011;9206;50.994;4.538;2023-02-02T05:17:29;20.23;;;3.70;;
18162;SDS011;9206;50.994;4.538;2023-02-02T05:26:08;16.57;;;3.43;;
18162;SDS011;9206;50.994;4.538;2023-02-02T05:29:01;10.73;;;3.03;;
18162;SDS011;9206;50.994;4.538;2023-02-02T05:31:49;14.27;;;3.50;;
18162;SDS011;9206;50.994;4.538;2023-02-02T05:37:27;17.30;;;3.40;;
18162;SDS011;9206;50.994;4.538;2023-02-02T05:40:16;16.73;;;3.53;;
18162;SDS011;9206;50.994;4.538;2023-02-02T05:43:09;10.93;;;3.40;;
18162;SDS011;9206;50.994;4.538;2023-02-02T05:45:57;12.90;;;3.00;;
18162;SDS011;9206;50.994;4.538;2023-02-02T05:48:50;12.13;;;3.47;;
18162;SDS011;9206;50.994;4.538;2023-02-02T05:51:41;18.27;;;3.30;;
18162;SDS011;9206;50.994;4.538;2023-02-02T05:54:36;10.13;;;3.23;;
18162;SDS011;9206;50.994;4.538;2023-02-02T05:57:27;14.70;;;3.47;;
18162;SDS011;9206;50.994;4.538;2023-02-02T06:00:15;13.30;;;3.30;;
18162;SDS011;9206;50.994;4.538;2023-02-02T06:03:04;12.23;;;2.93;;
18162;SDS011;9206;50.994;4.538;2023-02-02T06:05:52;15.13;;;3.40;;
18162;SDS011;9206;50.994;4.538;2023-02-02T06:08:40;12.47;;;3.53;;
18162;SDS011;9206;50.994;4.538;2023-02-02T06:11:29;11.07;;;3.50;;
18162;SDS011;9206;50.994;4.538;2023-02-02T06:14:18;9.27;;;3.10;;
18162;SDS011;9206;50.994;4.538;2023-02-02T06:17:12;14.27;;;3.27;;
18162;SDS011;9206;50.994;4.538;2023-02-02T06:20:00;12.13;;;2.93;;
18162;SDS011;9206;50.994;4.538;2023-02-02T06:22:48;20.37;;;3.47;;
18162;SDS011;9206;50.994;4.538;2023-02-02T06:25:38;7.40;;;2.90;;
18162;SDS011;9206;50.994;4.538;2023-02-02T06:28:28;8.13;;;2.33;;
18162;SDS011;9206;50.994;4.538;2023-02-02T06:31:18;9.97;;;2.97;;
18162;SDS011;9206;50.994;4.538;2023-02-02T06:34:12;14.23;;;3.23;;
18162;SDS011;9206;50.994;4.538;2023-02-02T06:37:00;11.27;;;2.77;;
18162;SDS011;9206;50.994;4.538;2023-02-02T06:39:57;12.13;;;3.27;;
18162;SDS011;9206;50.994;4.538;2023-02-02T06:42:44;10.37;;;3.20;;
18162;SDS011;9206;50.994;4.538;2023-02-02T06:45:37;13.33;;;3.60;;
18162;SDS011;9206;50.994;4.538;2023-02-02T06:48:28;12.50;;;3.03;;
18162;SDS011;9206;50.994;4.538;2023-02-02T06:51:21;12.87;;;3.80;;
18162;SDS011;9206;50.994;4.538;2023-02-02T06:54:09;19.20;;;3.93;;
18162;SDS011;9206;50.994;4.538;2023-02-02T06:57:03;11.77;;;3.67;;
18162;SDS011;9206;50.994;4.538;2023-02-02T06:59:53;13.40;;;2.77;;
18162;SDS011;9206;50.994;4.538;2023-02-02T07:02:43;11.70;;;2.87;;
18162;SDS011;9206;50.994;4.538;2023-02-02T07:05:33;8.23;;;3.60;;
18162;SDS011;9206;50.994;4.538;2023-02-02T07:08:21;15.13;;;3.27;;
18162;SDS011;9206;50.994;4.538;2023-02-02T07:11:18;13.37;;;3.60;;
18162;SDS011;9206;50.994;4.538;2023-02-02T07:14:22;10.90;;;3.10;;
18162;SDS011;9206;50.994;4.538;2023-02-02T07:20:06;7.97;;;3.00;;
18162;SDS011;9206;50.994;4.538;2023-02-02T07:22:55;11.23;;;3.17;;
18162;SDS011;9206;50.994;4.538;2023-02-02T07:25:44;11.20;;;3.60;;
18162;SDS011;9206;50.994;4.538;2023-02-02T07:31:23;12.37;;;3.13;;
18162;SDS011;9206;50.994;4.538;2023-02-02T07:34:11;10.57;;;4.00;;
18162;SDS011;9206;50.994;4.538;2023-02-02T07:37:04;17.03;;;3.60;;
18162;SDS011;9206;50.994;4.538;2023-02-02T07:42:47;8.40;;;3.43;;
18162;SDS011;9206;50.994;4.538;2023-02-02T07:45:35;7.60;;;2.70;;
18162;SDS011;9206;50.994;4.538;2023-02-02T07:48:28;11.57;;;3.87;;
18162;SDS011;9206;50.994;4.538;2023-02-02T07:51:22;15.50;;;3.27;;
18162;SDS011;9206;50.994;4.538;2023-02-02T07:54:11;10.90;;;3.43;;
18162;SDS011;9206;50.994;4.538;2023-02-02T07:57:00;9.57;;;2.83;;
18162;SDS011;9206;50.994;4.538;2023-02-02T07:59:50;15.93;;;3.27;;
18162;SDS011;9206;50.994;4.538;2023-02-02T08:02:39;12.80;;;3.13;;
18162;SDS011;9206;50.994;4.538;2023-02-02T08:05:27;9.10;;;3.20;;
18162;SDS011;9206;50.994;4.538;2023-02-02T08:11:11;13.70;;;3.60;;
18162;SDS011;9206;50.994;4.538;2023-02-02T08:14:15;9.83;;;2.73;;
18162;SDS011;9206;50.994;4.538;2023-02-02T08:17:04;14.30;;;3.30;;
18162;SDS011;9206;50.994;4.538;2023-02-02T08:19:53;9.90;;;2.83;;
18162;SDS011;9206;50.994;4.538;2023-02-02T08:22:46;15.73;;;3.20;;
18162;SDS011;9206;50.994;4.538;2023-02-02T08:25:39;8.73;;;2.77;;
18162;SDS011;9206;50.994;4.538;2023-02-02T08:28:30;11.50;;;2.50;;
18162;SDS011;9206;50.994;4.538;2023-02-02T08:31:26;15.60;;;3.10;;
18162;SDS011;9206;50.994;4.538;2023-02-02T08:34:19;6.27;;;2.40;;
18162;SDS011;9206;50.994;4.538;2023-02-02T08:37:10;18.90;;;3.37;;
18162;SDS011;9206;50.994;4.538;2023-02-02T08:39:58;9.67;;;3.03;;
18162;SDS011;9206;50.994;4.538;2023-02-02T08:42:46;12.37;;;3.57;;
18162;SDS011;9206;50.994;4.538;2023-02-02T08:45:41;9.60;;;2.57;;
18162;SDS011;9206;50.994;4.538;2023-02-02T08:48:31;8.63;;;2.67;;
18162;SDS011;9206;50.994;4.538;2023-02-02T08:51:20;6.10;;;2.53;;
18162;SDS011;9206;50.994;4.538;2023-02-02T08:54:08;15.20;;;2.73;;
18162;SDS011;9206;50.994;4.538;2023-02-02T08:56:58;15.03;;;3.10;;
18162;SDS011;9206;50.994;4.538;2023-02-02T08:59:47;5.87;;;2.47;;
18162;SDS011;9206;50.994;4.538;2023-02-02T09:02:34;16.87;;;3.23;;
18162;SDS011;9206;50.994;4.538;2023-02-02T09:08:15;8.17;;;2.93;;
18162;SDS011;9206;50.994;4.538;2023-02-02T09:11:05;10.07;;;2.70;;
18162;SDS011;9206;50.994;4.538;2023-02-02T09:14:10;9.43;;;2.83;;
18162;SDS011;9206;50.994;4.538;2023-02-02T09:17:16;8.77;;;2.87;;
18162;SDS011;9206;50.994;4.538;2023-02-02T09:20:10;8.67;;;3.37;;
18162;SDS011;9206;50.994;4.538;2023-02-02T09:23:03;14.80;;;4.40;;
18162;SDS011;9206;50.994;4.538;2023-02-02T09:25:56;12.33;;;3.27;;
18162;SDS011;9206;50.994;4.538;2023-02-02T09:28:50;6.23;;;2.63;;
18162;SDS011;9206;50.994;4.538;2023-02-02T09:31:40;9.27;;;2.50;;
18162;SDS011;9206;50.994;4.538;2023-02-02T09:34:28;10.80;;;2.63;;
18162;SDS011;9206;50.994;4.538;2023-02-02T09:37:17;16.20;;;3.20;;
18162;SDS011;9206;50.994;4.538;2023-02-02T09:40:06;9.40;;;2.70;;
18162;SDS011;9206;50.994;4.538;2023-02-02T09:43:01;8.73;;;2.50;;
18162;SDS011;9206;50.994;4.538;2023-02-02T09:46:08;7.87;;;2.23;;
18162;SDS011;9206;50.994;4.538;2023-02-02T09:52:09;8.20;;;2.40;;
18162;SDS011;9206;50.994;4.538;2023-02-02T09:55:14;12.20;;;2.67;;
18162;SDS011;9206;50.994;4.538;2023-02-02T09:58:10;9.70;;;2.67;;
18162;SDS011;9206;50.994;4.538;2023-02-02T10:01:04;6.03;;;2.53;;
18162;SDS011;9206;50.994;4.538;2023-02-02T10:03:56;8.30;;;2.77;;
18162;SDS011;9206;50.994;4.538;2023-02-02T10:06:49;8.20;;;2.93;;
18162;SDS011;9206;50.994;4.538;2023-02-02T10:09:39;11.17;;;2.57;;
18162;SDS011;9206;50.994;4.538;2023-02-02T10:12:37;8.40;;;2.47;;
18162;SDS011;9206;50.994;4.538;2023-02-02T10:15:34;9.87;;;2.70;;
18162;SDS011;9206;50.994;4.538;2023-02-02T10:18:29;11.70;;;3.07;;
18162;SDS011;9206;50.994;4.538;2023-02-02T10:21:25;6.17;;;2.20;;
18162;SDS011;9206;50.994;4.538;2023-02-02T10:27:21;8.10;;;2.40;;
18162;SDS011;9206;50.994;4.538;2023-02-02T10:30:26;14.87;;;2.23;;
18162;SDS011;9206;50.994;4.538;2023-02-02T10:33:26;6.70;;;2.40;;
18162;SDS011;9206;50.994;4.538;2023-02-02T10:36:31;9.73;;;2.63;;
18162;SDS011;9206;50.994;4.538;2023-02-02T10:39:35;7.27;;;2.70;;
18162;SDS011;9206;50.994;4.538;2023-02-02T10:42:51;5.57;;;2.87;;
18162;SDS011;9206;50.994;4.538;2023-02-02T10:46:23;13.17;;;2.60;;
18162;SDS011;9206;50.994;4.538;2023-02-02T10:49:33;9.97;;;3.00;;
18162;SDS011;9206;50.994;4.538;2023-02-02T10:56:07;6.20;;;2.40;;
18162;SDS011;9206;50.994;4.538;2023-02-02T10:59:17;9.30;;;2.30;;
18162;SDS011;9206;50.994;4.538;2023-02-02T11:02:10;11.23;;;2.70;;
18162;SDS011;9206;50.994;4.538;2023-02-02T11:05:00;4.70;;;2.40;;
18162;SDS011;9206;50.994;4.538;2023-02-02T11:08:12;4.93;;;2.30;;
18162;SDS011;9206;50.994;4.538;2023-02-02T11:11:07;9.33;;;2.50;;
18162;SDS011;9206;50.994;4.538;2023-02-02T11:13:58;8.87;;;2.30;;
18162;SDS011;9206;50.994;4.538;2023-02-02T11:16:58;6.03;;;2.50;;
18162;SDS011;9206;50.994;4.538;2023-02-02T11:19:55;5.70;;;2.30;;
18162;SDS011;9206;50.994;4.538;2023-02-02T11:22:58;9.90;;;2.33;;
18162;SDS011;9206;50.994;4.538;2023-02-02T11:26:03;9.07;;;2.53;;
18162;SDS011;9206;50.994;4.538;2023-02-02T11:29:11;9.83;;;2.70;;
18162;SDS011;9206;50.994;4.538;2023-02-02T11:32:19;11.10;;;3.20;;
18162;SDS011;9206;50.994;4.538;2023-02-02T11:35:17;6.73;;;2.27;;
18162;SDS011;9206;50.994;4.538;2023-02-02T11:41:01;6.87;;;2.33;;
18162;SDS011;9206;50.994;4.538;2023-02-02T11:44:16;7.17;;;2.57;;
18162;SDS011;9206;50.994;4.538;2023-02-02T11:47:24;8.30;;;2.57;;
18162;SDS011;9206;50.994;4.538;2023-02-02T11:50:43;15.10;;;2.70;;
18162;SDS011;9206;50.994;4.538;2023-02-02T11:53:48;7.83;;;2.77;;
18162;SDS011;9206;50.994;4.538;2023-02-02T11:56:53;6.47;;;2.30;;
18162;SDS011;9206;50.994;4.538;2023-02-02T12:00:05;4.87;;;1.97;;
18162;SDS011;9206;50.994;4.538;2023-02-02T12:03:29;4.53;;;2.10;;
18162;SDS011;9206;50.994;4.538;2023-02-02T12:10:09;6.93;;;2.30;;
18162;SDS011;9206;50.994;4.538;2023-02-02T12:13:06;8.07;;;2.57;;
18162;SDS011;9206;50.994;4.538;2023-02-02T12:25:22;4.80;;;2.23;;
18162;SDS011;9206;50.994;4.538;2023-02-02T12:28:44;7.43;;;2.70;;
18162;SDS011;9206;50.994;4.538;2023-02-02T12:38:17;9.03;;;2.50;;
18162;SDS011;9206;50.994;4.538;2023-02-02T12:41:22;3.73;;;1.90;;
18162;SDS011;9206;50.994;4.538;2023-02-02T12:44:23;6.50;;;2.50;;
18162;SDS011;9206;50.994;4.538;2023-02-02T12:47:24;5.50;;;2.93;;
18162;SDS011;9206;50.994;4.538;2023-02-02T12:50:26;10.50;;;2.37;;
18162;SDS011;9206;50.994;4.538;2023-02-02T12:53:27;4.43;;;2.33;;
18162;SDS011;9206;50.994;4.538;2023-02-02T12:56:36;6.30;;;2.33;;
18162;SDS011;9206;50.994;4.538;2023-02-02T12:59:39;4.70;;;2.40;;
18162;SDS011;9206;50.994;4.538;2023-02-02T13:02:56;8.23;;;2.30;;
18162;SDS011;9206;50.994;4.538;2023-02-02T13:05:54;9.33;;;2.97;;
18162;SDS011;9206;50.994;4.538;2023-02-02T13:08:51;13.10;;;3.83;;
18162;SDS011;9206;50.994;4.538;2023-02-02T13:15:00;3.13;;;1.93;;
18162;SDS011;9206;50.994;4.538;2023-02-02T13:17:53;7.27;;;2.40;;
18162;SDS011;9206;50.994;4.538;2023-02-02T13:20:57;5.27;;;2.20;;
18162;SDS011;9206;50.994;4.538;2023-02-02T13:23:54;3.30;;;2.30;;
18162;SDS011;9206;50.994;4.538;2023-02-02T13:26:50;5.17;;;2.33;;
18162;SDS011;9206;50.994;4.538;2023-02-02T13:29:46;9.90;;;2.07;;
18162;SDS011;9206;50.994;4.538;2023-02-02T13:36:15;15.70;;;3.13;;
18162;SDS011;9206;50.994;4.538;2023-02-02T13:39:16;10.80;;;2.73;;
18162;SDS011;9206;50.994;4.538;2023-02-02T13:42:08;8.87;;;2.30;;
18162;SDS011;9206;50.994;4.538;2023-02-02T13:45:16;2.67;;;2.27;;
18162;SDS011;9206;50.994;4.538;2023-02-02T13:48:23;2.57;;;2.03;;
18162;SDS011;9206;50.994;4.538;2023-02-02T13:58:15;6.13;;;2.50;;
18162;SDS011;9206;50.994;4.538;2023-02-02T14:04:28;4.30;;;2.70;;
18162;SDS011;9206;50.994;4.538;2023-02-02T14:07:20;4.93;;;2.47;;
18162;SDS011;9206;50.994;4.538;2023-02-02T14:10:25;7.40;;;2.70;;
18162;SDS011;9206;50.994;4.538;2023-02-02T14:16:46;3.17;;;2.60;;
18162;SDS011;9206;50.994;4.538;2023-02-02T14:19:52;3.87;;;2.77;;
18162;SDS011;9206;50.994;4.538;2023-02-02T14:22:46;4.00;;;2.40;;
18162;SDS011;9206;50.994;4.538;2023-02-02T14:25:45;5.33;;;3.03;;
18162;SDS011;9206;50.994;4.538;2023-02-02T14:28:44;8.17;;;2.90;;
18162;SDS011;9206;50.994;4.538;2023-02-02T14:31:54;6.00;;;2.50;;
18162;SDS011;9206;50.994;4.538;2023-02-02T14:34:53;4.27;;;2.83;;
18162;SDS011;9206;50.994;4.538;2023-02-02T14:37:45;4.80;;;3.13;;
18162;SDS011;9206;50.994;4.538;2023-02-02T14:40:42;6.60;;;3.10;;
18162;SDS011;9206;50.994;4.538;2023-02-02T14:46:37;3.70;;;3.00;;
18162;SDS011;9206;50.994;4.538;2023-02-02T14:49:33;8.50;;;3.07;;
18162;SDS011;9206;50.994;4.538;2023-02-02T14:52:23;3.67;;;3.17;;
18162;SDS011;9206;50.994;4.538;2023-02-02T14:55:24;7.27;;;3.57;;
18162;SDS011;9206;50.994;4.538;2023-02-02T14:58:25;7.37;;;3.60;;
18162;SDS011;9206;50.994;4.538;2023-02-02T15:01:22;8.73;;;3.83;;
18162;SDS011;9206;50.994;4.538;2023-02-02T15:04:22;7.70;;;3.60;;
18162;SDS011;9206;50.994;4.538;2023-02-02T15:17:24;4.80;;;4.43;;
18162;SDS011;9206;50.994;4.538;2023-02-02T15:23:17;7.57;;;3.87;;
18162;SDS011;9206;50.994;4.538;2023-02-02T15:26:12;8.37;;;4.00;;
18162;SDS011;9206;50.994;4.538;2023-02-02T15:29:12;6.50;;;4.17;;
18162;SDS011;9206;50.994;4.538;2023-02-02T15:32:04;5.37;;;4.23;;
18162;SDS011;9206;50.994;4.538;2023-02-02T15:38:05;3.97;;;3.30;;
18162;SDS011;9206;50.994;4.538;2023-02-02T15:41:12;5.57;;;3.23;;
18162;SDS011;9206;50.994;4.538;2023-02-02T15:44:16;6.73;;;3.60;;
18162;SDS011;9206;50.994;4.538;2023-02-02T15:47:13;4.57;;;3.27;;
18162;SDS011;9206;50.994;4.538;2023-02-02T15:50:14;4.97;;;2.90;;
18162;SDS011;9206;50.994;4.538;2023-02-02T15:53:04;4.73;;;3.43;;
18162;SDS011;9206;50.994;4.538;2023-02-02T15:55:57;8.53;;;3.67;;
18162;SDS011;9206;50.994;4.538;2023-02-02T15:58:47;5.23;;;2.90;;
18162;SDS011;9206;50.994;4.538;2023-02-02T16:01:42;6.20;;;3.40;;
18162;SDS011;9206;50.994;4.538;2023-02-02T16:04:35;5.50;;;3.30;;
18162;SDS011;9206;50.994;4.538;2023-02-02T16:07:31;5.33;;;3.10;;
18162;SDS011;9206;50.994;4.538;2023-02-02T16:10:33;5.50;;;3.47;;
18162;SDS011;9206;50.994;4.538;2023-02-02T16:13:23;3.50;;;2.87;;
18162;SDS011;9206;50.994;4.538;2023-02-02T16:16:21;5.63;;;3.00;;
18162;SDS011;9206;50.994;4.538;2023-02-02T16:19:22;4.60;;;2.90;;
18162;SDS011;9206;50.994;4.538;2023-02-02T16:22:14;7.80;;;3.30;;
18162;SDS011;9206;50.994;4.538;2023-02-02T16:28:09;4.90;;;2.40;;
18162;SDS011;9206;50.994;4.538;2023-02-02T16:37:31;7.10;;;2.83;;
18162;SDS011;9206;50.994;4.538;2023-02-02T16:40:24;6.57;;;3.43;;
18162;SDS011;9206;50.994;4.538;2023-02-02T16:43:16;5.40;;;3.00;;
18162;SDS011;9206;50.994;4.538;2023-02-02T16:46:14;7.47;;;3.00;;
18162;SDS011;9206;50.994;4.538;2023-02-02T16:49:25;8.43;;;3.00;;
18162;SDS011;9206;50.994;4.538;2023-02-02T16:52:15;5.83;;;2.97;;
18162;SDS011;9206;50.994;4.538;2023-02-02T16:55:05;3.20;;;2.63;;
18162;SDS011;9206;50.994;4.538;2023-02-02T16:58:01;5.17;;;2.83;;
18162;SDS011;9206;50.994;4.538;2023-02-02T17:00:53;3.87;;;2.73;;
18162;SDS011;9206;50.994;4.538;2023-02-02T17:03:48;11.33;;;3.33;;
18162;SDS011;9206;50.994;4.538;2023-02-02T17:07:05;4.97;;;3.00;;
18162;SDS011;9206;50.994;4.538;2023-02-02T17:10:10;5.13;;;3.67;;
18162;SDS011;9206;50.994;4.538;2023-02-02T17:13:33;5.70;;;3.40;;
18162;SDS011;9206;50.994;4.538;2023-02-02T17:16:24;5.73;;;3.13;;
18162;SDS011;9206;50.994;4.538;2023-02-02T17:19:28;6.43;;;3.10;;
18162;SDS011;9206;50.994;4.538;2023-02-02T17:25:24;3.57;;;2.97;;
18162;SDS011;9206;50.994;4.538;2023-02-02T17:28:23;5.57;;;2.90;;
18162;SDS011;9206;50.994;4.538;2023-02-02T17:31:12;3.13;;;2.83;;
18162;SDS011;9206;50.994;4.538;2023-02-02T17:34:04;4.93;;;3.00;;
18162;SDS011;9206;50.994;4.538;2023-02-02T17:36:59;8.10;;;3.50;;
18162;SDS011;9206;50.994;4.538;2023-02-02T17:39:55;4.20;;;3.23;;
18162;SDS011;9206;50.994;4.538;2023-02-02T17:42:59;5.50;;;3.57;;
18162;SDS011;9206;50.994;4.538;2023-02-02T17:45:59;6.03;;;2.97;;
18162;SDS011;9206;50.994;4.538;2023-02-02T17:48:48;6.60;;;3.50;;
18162;SDS011;9206;50.994;4.538;2023-02-02T17:54:33;6.30;;;3.57;;
18162;SDS011;9206;50.994;4.538;2023-02-02T17:57:22;8.17;;;3.33;;
18162;SDS011;9206;50.994;4.538;2023-02-02T18:00:10;5.73;;;3.40;;
18162;SDS011;9206;50.994;4.538;2023-02-02T18:03:03;9.33;;;3.93;;
18162;SDS011;9206;50.994;4.538;2023-02-02T18:05:57;4.50;;;3.10;;
18162;SDS011;9206;50.994;4.538;2023-02-02T18:08:47;5.50;;;3.63;;
18162;SDS011;9206;50.994;4.538;2023-02-02T18:11:37;4.67;;;3.40;;
18162;SDS011;9206;50.994;4.538;2023-02-02T18:14:26;7.27;;;3.23;;
18162;SDS011;9206;50.994;4.538;2023-02-02T18:17:14;5.80;;;3.87;;
18162;SDS011;9206;50.994;4.538;2023-02-02T18:20:02;4.97;;;3.60;;
18162;SDS011;9206;50.994;4.538;2023-02-02T18:22:50;6.30;;;3.13;;
18162;SDS011;9206;50.994;4.538;2023-02-02T18:25:38;5.00;;;3.97;;
18162;SDS011;9206;50.994;4.538;2023-02-02T18:28:29;4.30;;;3.43;;
18162;SDS011;9206;50.994;4.538;2023-02-02T18:31:24;11.10;;;3.80;;
18162;SDS011;9206;50.994;4.538;2023-02-02T18:34:12;5.40;;;3.53;;
18162;SDS011;9206;50.994;4.538;2023-02-02T18:37:00;6.13;;;4.03;;
18162;SDS011;9206;50.994;4.538;2023-02-02T18:39:48;8.13;;;3.47;;
18162;SDS011;9206;50.994;4.538;2023-02-02T18:42:39;4.17;;;3.30;;
18162;SDS011;9206;50.994;4.538;2023-02-02T18:45:28;5.80;;;3.33;;
18162;SDS011;9206;50.994;4.538;2023-02-02T18:48:20;6.93;;;3.50;;
18162;SDS011;9206;50.994;4.538;2023-02-02T18:51:11;5.07;;;4.00;;
18162;SDS011;9206;50.994;4.538;2023-02-02T18:54:01;7.40;;;3.70;;
18162;SDS011;9206;50.994;4.538;2023-02-02T18:56:50;5.87;;;3.77;;
18162;SDS011;9206;50.994;4.538;2023-02-02T18:59:37;5.07;;;3.50;;
18162;SDS011;9206;50.994;4.538;2023-02-02T19:02:24;3.77;;;3.47;;
18162;SDS011;9206;50.994;4.538;2023-02-02T19:05:22;7.93;;;4.00;;
18162;SDS011;9206;50.994;4.538;2023-02-02T19:08:27;6.80;;;3.73;;
18162;SDS011;9206;50.994;4.538;2023-02-02T19:11:15;8.47;;;3.70;;
18162;SDS011;9206;50.994;4.538;2023-02-02T19:14:05;4.67;;;3.60;;
18162;SDS011;9206;50.994;4.538;2023-02-02T19:16:59;11.00;;;3.97;;
18162;SDS011;9206;50.994;4.538;2023-02-02T19:20:06;8.27;;;3.30;;
18162;SDS011;9206;50.994;4.538;2023-02-02T19:23:09;8.97;;;4.47;;
18162;SDS011;9206;50.994;4.538;2023-02-02T19:26:06;13.70;;;4.17;;
18162;SDS011;9206;50.994;4.538;2023-02-02T19:29:09;6.17;;;3.83;;
18162;SDS011;9206;50.994;4.538;2023-02-02T19:32:04;7.77;;;3.70;;
18162;SDS011;9206;50.994;4.538;2023-02-02T19:34:59;7.63;;;3.73;;
18162;SDS011;9206;50.994;4.538;2023-02-02T19:37:47;9.23;;;3.83;;
18162;SDS011;9206;50.994;4.538;2023-02-02T19:40:39;5.23;;;4.03;;
18162;SDS011;9206;50.994;4.538;2023-02-02T19:43:28;6.93;;;4.30;;
18162;SDS011;9206;50.994;4.538;2023-02-02T19:46:28;8.43;;;3.97;;
18162;SDS011;9206;50.994;4.538;2023-02-02T19:52:15;9.03;;;3.77;;
18162;SDS011;9206;50.994;4.538;2023-02-02T19:55:14;5.73;;;3.60;;
18162;SDS011;9206;50.994;4.538;2023-02-02T19:58:12;12.77;;;3.90;;
18162;SDS011;9206;50.994;4.538;2023-02-02T20:01:06;8.33;;;3.70;;
18162;SDS011;9206;50.994;4.538;2023-02-02T20:04:02;11.97;;;4.20;;
18162;SDS011;9206;50.994;4.538;2023-02-02T20:06:57;6.57;;;3.33;;